Nearby METAR Reports

 

EGMC - Southend-On-Sea, United Kingdom
Distance from station: NE 10km
Updated: 22/10/2019 02:20
Few Clouds
Few Clouds
 Wind from WNW
Wind: WNW 5 mph , 7 km/h
Temperature: 9°C
Wind Chill: 8°C
Dew Point: 9°C
Humidity: 100%
Barometer: 1022 hPa
Clouds: Few Clouds
Visibility: 6 miles , 10 km
Cloud details: Few Clouds 1494 m
2019/10/22 01:20 EGMC 220120Z 30004KT 9999 FEW049 09/09 Q1022
EGLC - London City Airp, United Kingdom
Distance from station: W 37km
Updated: 22/10/2019 02:50
Mostly cloudy
Mostly cloudy
 Wind from WNW
Wind: WNW 3 mph , 6 km/h
Temperature: 10°C
Dew Point: 8°C
Humidity: 88%
Barometer: 1023 hPa
Clouds: Mostly cloudy
Visibility: 6 miles , 10 km
Cloud details: Mostly cloudy 1433 m
2019/10/22 01:50 EGLC 220150Z AUTO 29003KT 9999 BKN047 10/08 Q1023
EGKB - Biggin Hill, United Kingdom
Distance from station: WSW 45km
Updated: 21/10/2019 22:20
NOT Current
Light rain, Mostly cloudy
Light rain, Mostly cloudy
 Wind from NNW
Wind: NNW 8 mph , 13 km/h
Temperature: 9°C
Wind Chill: 7°C
Dew Point: 8°C
Humidity: 94%
Barometer: 1022 hPa
Summary: Light rain
Clouds: Mostly cloudy
Visibility: 6 miles , 10 km
Cloud details: Mostly cloudy 305 m
2019/10/21 21:20 EGKB 212120Z 33007KT 9999 -RA BKN010 09/08 Q1022
 
EGSS - Stansted Airport, United Kingdom
Distance from station: NNW 48km
Updated: 22/10/2019 02:50
Clear
Clear
 Wind from WNW
Wind: WNW 2 mph , 4 km/h
Temperature: 7°C
Dew Point: 7°C
Humidity: 100%
Barometer: 1022 hPa
Clouds: Clear
Visibility: 4 miles , 6 km
2019/10/22 01:50 EGSS 220150Z AUTO 29002KT 6000 NCD 07/07 Q1022
EGKK - London/Gatwick A, United Kingdom
Distance from station: SW 67km
Updated: 22/10/2019 02:50
Partly cloudy
Partly cloudy
 Wind from W
Wind: W 3 mph , 6 km/h
Temperature: 8°C
Dew Point: 8°C
Humidity: 100%
Barometer: 1022 hPa
Clouds: Partly cloudy
Visibility: 6 miles , 9 km
2019/10/22 01:50 EGKK 220150Z 28003KT 9000 NSC 08/08 Q1022
EGMD - Lydd Airport, United Kingdom
Distance from station: SSE 67km
Updated: 22/10/2019 02:50
Overcast
Overcast
 Wind from NW
Wind: NW 5 mph , 7 km/h
Temperature: 10°C
Wind Chill: 9°C
Dew Point: 9°C
Humidity: 94%
Barometer: 1023 hPa
Clouds: Overcast
Visibility: 6 miles , 10 km
Cloud details: Mostly cloudy 1189 m
Overcast 1402 m
2019/10/22 01:50 EGMD 220150Z AUTO 32004KT 9999 BKN039/// OVC046/// 10/09 Q1023
 
EGWU - Northolt Raf, United Kingdom
Distance from station: W 69km
Updated: 22/10/2019 02:50
Overcast
Overcast
 Wind from W
Wind: W 2 mph , 4 km/h
Temperature: 9°C
Dew Point: 7°C
Humidity: 87%
Barometer: 1022 hPa
Clouds: Overcast
Visibility: 6 miles , 10 km
Cloud details: Mostly cloudy 1524 m
Overcast 3658 m
2019/10/22 01:50 EGWU 220150Z AUTO 27002KT 9999 // BKN050/// OVC120/// 09/07 Q1022
EGLL - London/Heathrow, United Kingdom
Distance from station: W 72km
Updated: 22/10/2019 02:50
Few Clouds
Few Clouds
 Wind from W
Wind: W 3 mph , 6 km/h
Temperature: 10°C
Dew Point: 8°C
Humidity: 88%
Barometer: 1023 hPa
Clouds: Few Clouds
Visibility: 6 miles , 10 km
Cloud details: Few Clouds 884 m
2019/10/22 01:50 EGLL 220150Z AUTO 28003KT 9999 FEW029 10/08 Q1023
EGUW - Wattisham Raf, United Kingdom
Distance from station: NNE 72km
Updated: 22/10/2019 02:50
Mist, Few clouds
Mist, Few clouds
 Wind from NW
Wind: NW 5 mph , 7 km/h
Temperature: 7°C
Wind Chill: 6°C
Dew Point: 7°C
Humidity: 100%
Barometer: 1022 hPa
Summary: Mist
Clouds: Few Clouds
Visibility: 6 miles , 9 km
Cloud details: Few Clouds 152 m
2019/10/22 01:50 EGUW 220150Z AUTO 31004KT 9000 BR FEW005/// 07/07 Q1022
 
EGGW - Luton Airport, United Kingdom
Distance from station: WNW 76km
Updated: 22/10/2019 02:50
Few Clouds
Few Clouds
 Wind from WNW
Wind: WNW 6 mph , 9 km/h
Temperature: 8°C
Wind Chill: 6°C
Dew Point: 7°C
Humidity: 93%
Barometer: 1022 hPa
Clouds: Few Clouds
Visibility: 6 miles , 9 km
Cloud details: Few Clouds 1128 m
2019/10/22 01:50 EGGW 220150Z AUTO 30005KT 9000 FEW037 08/07 Q1022
EGSC - Cambridge, United Kingdom
Distance from station: NNW 81km
Updated: 21/10/2019 17:50
NOT Current
Mostly cloudy
Mostly cloudy
 Wind from NNW
Wind: NNW 9 mph , 15 km/h
Temperature: 11°C
Dew Point: 9°C
Humidity: 88%
Barometer: 1020 hPa
Clouds: Mostly cloudy
Visibility: 6 miles , 10 km
Cloud details: Few Clouds 457 m
Mostly cloudy 1006 m
2019/10/21 16:50 EGSC 211650Z 34008KT 9999 FEW015 BKN033 11/09 Q1020